Terminal Aerodrome Forecast
Issued by NWS

Home | Current Version | Previous Version | Text Only | Print | Product List | Glossary On
Versions: 1 2 3 4 5 6 7 8 9 10 11 12 13 14 15 16 17 18 19 20 21
521
FTUS44 KLZK 011525 AAA
TAFPBF
TAF AMD
KPBF 011525Z 0115/0212 36005KT P6SM SCT050
     FM011800 04005KT P6SM SCT025 BKN050
     FM020000 01004KT P6SM BKN250
     FM020600 01007KT P6SM VCSH BKN050 OVC080=

USA.gov is the U.S. government's official web portal to all federal, state and local government web resources and services.